sensor_id;sensor_type;location;lat;lon;timestamp;pressure;altitude;pressure_sealevel;temperature;humidity
46756;BME280;32506;52.826;-1.192;2023-04-29T00:01:06;101175.53;;;8.86;51.31
46756;BME280;32506;52.826;-1.192;2023-04-29T00:03:32;101182.69;;;8.86;51.95
46756;BME280;32506;52.826;-1.192;2023-04-29T00:05:58;101168.34;;;8.87;51.76
46756;BME280;32506;52.826;-1.192;2023-04-29T00:08:24;101178.81;;;8.88;51.64
46756;BME280;32506;52.826;-1.192;2023-04-29T00:10:49;101177.00;;;8.89;51.64
46756;BME280;32506;52.826;-1.192;2023-04-29T00:13:15;101175.34;;;8.88;51.79
46756;BME280;32506;52.826;-1.192;2023-04-29T00:15:41;101177.81;;;8.89;52.15
46756;BME280;32506;52.826;-1.192;2023-04-29T00:18:07;101184.81;;;8.90;52.15
46756;BME280;32506;52.826;-1.192;2023-04-29T00:20:33;101178.63;;;8.90;51.90
46756;BME280;32506;52.826;-1.192;2023-04-29T00:22:59;101182.97;;;8.91;52.56
46756;BME280;32506;52.826;-1.192;2023-04-29T00:25:24;101180.09;;;8.93;52.23
46756;BME280;32506;52.826;-1.192;2023-04-29T00:27:50;101186.28;;;8.93;52.46
46756;BME280;32506;52.826;-1.192;2023-04-29T00:30:15;101195.91;;;8.94;52.68
46756;BME280;32506;52.826;-1.192;2023-04-29T00:32:41;101192.22;;;8.95;52.83
46756;BME280;32506;52.826;-1.192;2023-04-29T00:35:08;101189.38;;;8.97;52.57
46756;BME280;32506;52.826;-1.192;2023-04-29T00:37:33;101193.69;;;8.98;52.69
46756;BME280;32506;52.826;-1.192;2023-04-29T00:39:59;101191.03;;;8.98;52.75
46756;BME280;32506;52.826;-1.192;2023-04-29T00:42:24;101183.84;;;8.98;52.83
46756;BME280;32506;52.826;-1.192;2023-04-29T00:44:50;101186.34;;;9.00;52.83
46756;BME280;32506;52.826;-1.192;2023-04-29T00:47:16;101187.16;;;9.00;52.83
46756;BME280;32506;52.826;-1.192;2023-04-29T00:49:42;101178.34;;;9.00;52.75
46756;BME280;32506;52.826;-1.192;2023-04-29T00:52:10;101188.81;;;9.01;52.93
46756;BME280;32506;52.826;-1.192;2023-04-29T00:54:36;101182.50;;;9.02;52.72
46756;BME280;32506;52.826;-1.192;2023-04-29T00:57:03;101184.13;;;9.03;52.86
46756;BME280;32506;52.826;-1.192;2023-04-29T00:59:30;101184.97;;;9.04;52.73
46756;BME280;32506;52.826;-1.192;2023-04-29T01:02:01;101184.97;;;9.04;52.70
46756;BME280;32506;52.826;-1.192;2023-04-29T01:04:27;101187.44;;;9.05;52.81
46756;BME280;32506;52.826;-1.192;2023-04-29T01:12:20;101189.09;;;9.06;53.04
46756;BME280;32506;52.826;-1.192;2023-04-29T01:17:46;101190.72;;;9.07;52.99
46756;BME280;32506;52.826;-1.192;2023-04-29T01:20:12;101182.72;;;9.07;52.71
46756;BME280;32506;52.826;-1.192;2023-04-29T01:22:39;101186.25;;;9.08;52.86
46756;BME280;32506;52.826;-1.192;2023-04-29T01:25:05;101189.72;;;9.09;52.41
46756;BME280;32506;52.826;-1.192;2023-04-29T01:27:36;101181.72;;;9.09;52.38
46756;BME280;32506;52.826;-1.192;2023-04-29T01:30:21;101187.69;;;9.11;52.91
46756;BME280;32506;52.826;-1.192;2023-04-29T01:32:58;101190.56;;;9.09;52.55
46756;BME280;32506;52.826;-1.192;2023-04-29T01:35:53;101199.19;;;9.11;52.70
46756;BME280;32506;52.826;-1.192;2023-04-29T01:38:35;101191.19;;;9.11;52.67
46756;BME280;32506;52.826;-1.192;2023-04-29T01:41:09;101203.50;;;9.12;52.56
46756;BME280;32506;52.826;-1.192;2023-04-29T01:43:36;101201.03;;;9.11;52.68
46756;BME280;32506;52.826;-1.192;2023-04-29T01:46:10;101199.00;;;9.13;52.74
46756;BME280;32506;52.826;-1.192;2023-04-29T01:48:40;101198.19;;;9.12;52.58
46756;BME280;32506;52.826;-1.192;2023-04-29T01:51:06;101199.84;;;9.13;52.80
46756;BME280;32506;52.826;-1.192;2023-04-29T01:53:31;101197.16;;;9.13;52.45
46756;BME280;32506;52.826;-1.192;2023-04-29T01:55:57;101194.50;;;9.13;52.34
46756;BME280;32506;52.826;-1.192;2023-04-29T01:58:23;101195.31;;;9.14;52.48
46756;BME280;32506;52.826;-1.192;2023-04-29T02:00:48;101197.78;;;9.15;52.49
46756;BME280;32506;52.826;-1.192;2023-04-29T02:03:14;101196.78;;;9.16;52.43
46756;BME280;32506;52.826;-1.192;2023-04-29T02:05:39;101198.59;;;9.16;52.46
46756;BME280;32506;52.826;-1.192;2023-04-29T02:08:05;101199.44;;;9.16;52.44
46756;BME280;32506;52.826;-1.192;2023-04-29T02:10:32;101196.78;;;9.16;52.47
46756;BME280;32506;52.826;-1.192;2023-04-29T02:12:57;101196.78;;;9.16;52.39
46756;BME280;32506;52.826;-1.192;2023-04-29T02:15:25;101198.44;;;9.17;52.18
46756;BME280;32506;52.826;-1.192;2023-04-29T02:17:51;101203.78;;;9.17;52.69
46756;BME280;32506;52.826;-1.192;2023-04-29T02:20:16;101202.75;;;9.18;52.28
46756;BME280;32506;52.826;-1.192;2023-04-29T02:22:42;101202.75;;;9.18;52.44
46756;BME280;32506;52.826;-1.192;2023-04-29T02:25:08;101208.06;;;9.18;52.23
46756;BME280;32506;52.826;-1.192;2023-04-29T02:27:33;101207.25;;;9.18;52.05
46756;BME280;32506;52.826;-1.192;2023-04-29T02:29:59;101200.06;;;9.18;52.10
46756;BME280;32506;52.826;-1.192;2023-04-29T02:32:24;101205.25;;;9.20;52.30
46756;BME280;32506;52.826;-1.192;2023-04-29T02:34:50;101209.72;;;9.19;52.21
46756;BME280;32506;52.826;-1.192;2023-04-29T02:37:16;101208.06;;;9.18;51.93
46756;BME280;32506;52.826;-1.192;2023-04-29T02:39:41;101207.91;;;9.20;51.92
46756;BME280;32506;52.826;-1.192;2023-04-29T02:42:06;101207.72;;;9.21;52.17
46756;BME280;32506;52.826;-1.192;2023-04-29T02:44:32;101213.06;;;9.21;52.25
46756;BME280;32506;52.826;-1.192;2023-04-29T02:46:57;101203.38;;;9.20;52.14
46756;BME280;32506;52.826;-1.192;2023-04-29T02:49:23;101209.53;;;9.21;52.14
46756;BME280;32506;52.826;-1.192;2023-04-29T02:51:48;101212.22;;;9.21;51.86
46756;BME280;32506;52.826;-1.192;2023-04-29T02:54:17;101207.72;;;9.21;51.95
46756;BME280;32506;52.826;-1.192;2023-04-29T02:56:43;101206.69;;;9.22;52.16
46756;BME280;32506;52.826;-1.192;2023-04-29T02:59:08;101210.38;;;9.21;52.26
46756;BME280;32506;52.826;-1.192;2023-04-29T03:01:34;101209.34;;;9.22;51.96
46756;BME280;32506;52.826;-1.192;2023-04-29T03:04:00;101213.88;;;9.22;52.08
46756;BME280;32506;52.826;-1.192;2023-04-29T03:06:26;101217.34;;;9.22;51.96
46756;BME280;32506;52.826;-1.192;2023-04-29T03:08:52;101209.34;;;9.22;52.02
46756;BME280;32506;52.826;-1.192;2023-04-29T03:11:18;101219.00;;;9.23;51.79
46756;BME280;32506;52.826;-1.192;2023-04-29T03:13:43;101210.38;;;9.21;51.83
46756;BME280;32506;52.826;-1.192;2023-04-29T03:16:10;101219.00;;;9.23;51.70
46756;BME280;32506;52.826;-1.192;2023-04-29T03:18:37;101213.06;;;9.21;51.87
46756;BME280;32506;52.826;-1.192;2023-04-29T03:21:03;101215.34;;;9.24;51.56
46756;BME280;32506;52.826;-1.192;2023-04-29T03:23:29;101215.53;;;9.23;51.48
46756;BME280;32506;52.826;-1.192;2023-04-29T03:25:54;101214.69;;;9.22;51.75
46756;BME280;32506;52.826;-1.192;2023-04-29T03:28:20;101210.38;;;9.21;51.38
46756;BME280;32506;52.826;-1.192;2023-04-29T03:30:45;101212.00;;;9.22;51.17
46756;BME280;32506;52.826;-1.192;2023-04-29T03:33:11;101215.06;;;9.19;51.26
46756;BME280;32506;52.826;-1.192;2023-04-29T03:35:36;101215.25;;;9.18;51.01
46756;BME280;32506;52.826;-1.192;2023-04-29T03:38:01;101211.78;;;9.17;50.94
46756;BME280;32506;52.826;-1.192;2023-04-29T03:40:27;101220.97;;;9.15;50.82
46756;BME280;32506;52.826;-1.192;2023-04-29T03:42:52;101207.00;;;9.13;51.16
46756;BME280;32506;52.826;-1.192;2023-04-29T03:45:18;101214.38;;;9.11;50.88
46756;BME280;32506;52.826;-1.192;2023-04-29T03:47:43;101210.22;;;9.08;50.85
46756;BME280;32506;52.826;-1.192;2023-04-29T03:50:09;101214.91;;;9.06;50.75
46756;BME280;32506;52.826;-1.192;2023-04-29T03:52:35;101215.09;;;9.04;50.40
46756;BME280;32506;52.826;-1.192;2023-04-29T03:55:01;101219.97;;;9.01;50.53
46756;BME280;32506;52.826;-1.192;2023-04-29T03:57:27;101220.16;;;8.99;50.44
46756;BME280;32506;52.826;-1.192;2023-04-29T03:59:52;101215.03;;;8.98;50.27
46756;BME280;32506;52.826;-1.192;2023-04-29T04:02:17;101221.38;;;8.97;50.18
46756;BME280;32506;52.826;-1.192;2023-04-29T04:04:43;101223.41;;;8.95;50.65
46756;BME280;32506;52.826;-1.192;2023-04-29T04:07:09;101218.44;;;8.92;50.32
46756;BME280;32506;52.826;-1.192;2023-04-29T04:09:36;101225.81;;;8.89;50.42
46756;BME280;32506;52.826;-1.192;2023-04-29T04:12:02;101221.47;;;8.88;50.50
46756;BME280;32506;52.826;-1.192;2023-04-29T04:14:27;101222.47;;;8.87;50.58
46756;BME280;32506;52.826;-1.192;2023-04-29T04:16:53;101225.34;;;8.86;50.55
46756;BME280;32506;52.826;-1.192;2023-04-29T04:19:19;101234.34;;;8.85;50.73
46756;BME280;32506;52.826;-1.192;2023-04-29T04:21:44;101229.00;;;8.85;50.76
46756;BME280;32506;52.826;-1.192;2023-04-29T04:24:10;101236.38;;;8.83;50.58
46756;BME280;32506;52.826;-1.192;2023-04-29T04:26:35;101233.72;;;8.83;50.91
46756;BME280;32506;52.826;-1.192;2023-04-29T04:29:01;101232.91;;;8.82;51.11
46756;BME280;32506;52.826;-1.192;2023-04-29T04:31:27;101247.22;;;8.81;51.06
46756;BME280;32506;52.826;-1.192;2023-04-29T04:33:53;101242.72;;;8.82;51.11
46756;BME280;32506;52.826;-1.192;2023-04-29T04:36:18;101243.72;;;8.81;51.31
46756;BME280;32506;52.826;-1.192;2023-04-29T04:38:43;101243.72;;;8.81;51.48
46756;BME280;32506;52.826;-1.192;2023-04-29T04:41:09;101244.56;;;8.81;51.60
46756;BME280;32506;52.826;-1.192;2023-04-29T04:43:34;101246.38;;;8.81;51.80
46756;BME280;32506;52.826;-1.192;2023-04-29T04:46:08;101242.91;;;8.80;51.91
46756;BME280;32506;52.826;-1.192;2023-04-29T04:48:34;101252.56;;;8.81;52.01
46756;BME280;32506;52.826;-1.192;2023-04-29T04:51:09;101255.22;;;8.81;52.25
46756;BME280;32506;52.826;-1.192;2023-04-29T04:53:35;101263.22;;;8.81;52.18
46756;BME280;32506;52.826;-1.192;2023-04-29T04:56:01;101266.69;;;8.82;52.24
46756;BME280;32506;52.826;-1.192;2023-04-29T04:58:26;101266.69;;;8.82;52.25
46756;BME280;32506;52.826;-1.192;2023-04-29T05:00:52;101270.22;;;8.82;52.65
46756;BME280;32506;52.826;-1.192;2023-04-29T05:03:17;101273.88;;;8.81;52.42
46756;BME280;32506;52.826;-1.192;2023-04-29T05:05:43;101271.22;;;8.81;52.50
46756;BME280;32506;52.826;-1.192;2023-04-29T05:08:08;101272.03;;;8.82;52.19
46756;BME280;32506;52.826;-1.192;2023-04-29T05:10:37;101266.69;;;8.82;52.16
46756;BME280;32506;52.826;-1.192;2023-04-29T05:13:02;101269.56;;;8.80;52.27
46756;BME280;32506;52.826;-1.192;2023-04-29T05:15:28;101275.69;;;8.81;52.57
46756;BME280;32506;52.826;-1.192;2023-04-29T05:17:53;101282.69;;;8.82;51.99
46756;BME280;32506;52.826;-1.192;2023-04-29T05:20:19;101282.88;;;8.80;52.07
46756;BME280;32506;52.826;-1.192;2023-04-29T05:22:45;101284.53;;;8.81;52.26
46756;BME280;32506;52.826;-1.192;2023-04-29T05:25:11;101280.22;;;8.80;52.00
46756;BME280;32506;52.826;-1.192;2023-04-29T05:27:36;101275.88;;;8.79;52.11
46756;BME280;32506;52.826;-1.192;2023-04-29T05:30:02;101283.06;;;8.79;51.60
46756;BME280;32506;52.826;-1.192;2023-04-29T05:32:28;101285.72;;;8.79;51.76
46756;BME280;32506;52.826;-1.192;2023-04-29T05:34:53;101295.56;;;8.78;51.63
46756;BME280;32506;52.826;-1.192;2023-04-29T05:37:19;101294.72;;;8.78;51.63
46756;BME280;32506;52.826;-1.192;2023-04-29T05:39:44;101295.75;;;8.77;51.57
46756;BME280;32506;52.826;-1.192;2023-04-29T05:42:10;101295.94;;;8.75;51.40
46756;BME280;32506;52.826;-1.192;2023-04-29T05:44:35;101299.44;;;8.76;51.34
46756;BME280;32506;52.826;-1.192;2023-04-29T05:47:00;101304.94;;;8.74;51.41
46756;BME280;32506;52.826;-1.192;2023-04-29T05:49:26;101297.78;;;8.75;51.43
46756;BME280;32506;52.826;-1.192;2023-04-29T05:51:51;101305.09;;;8.72;50.90
46756;BME280;32506;52.826;-1.192;2023-04-29T05:54:17;101301.63;;;8.72;50.94
46756;BME280;32506;52.826;-1.192;2023-04-29T05:56:42;101294.63;;;8.71;50.96
46756;BME280;32506;52.826;-1.192;2023-04-29T05:59:08;101299.97;;;8.71;51.28
46756;BME280;32506;52.826;-1.192;2023-04-29T06:01:33;101301.81;;;8.70;50.87
46756;BME280;32506;52.826;-1.192;2023-04-29T06:03:59;101298.13;;;8.71;51.15
46756;BME280;32506;52.826;-1.192;2023-04-29T06:06:24;101299.16;;;8.70;51.14
46756;BME280;32506;52.826;-1.192;2023-04-29T06:08:50;101298.13;;;8.71;51.17
46756;BME280;32506;52.826;-1.192;2023-04-29T06:11:15;101297.13;;;8.72;51.09
46756;BME280;32506;52.826;-1.192;2023-04-29T06:13:41;101304.09;;;8.73;51.19
46756;BME280;32506;52.826;-1.192;2023-04-29T06:16:06;101301.25;;;8.75;51.05
46756;BME280;32506;52.826;-1.192;2023-04-29T06:18:33;101309.91;;;8.77;51.17
46756;BME280;32506;52.826;-1.192;2023-04-29T06:20:58;101309.53;;;8.80;50.89
46756;BME280;32506;52.826;-1.192;2023-04-29T06:23:23;101311.00;;;8.83;50.93
46756;BME280;32506;52.826;-1.192;2023-04-29T06:25:50;101315.16;;;8.85;51.13
46756;BME280;32506;52.826;-1.192;2023-04-29T06:28:15;101313.97;;;8.88;50.90
46756;BME280;32506;52.826;-1.192;2023-04-29T06:30:41;101319.72;;;8.92;51.36
46756;BME280;32506;52.826;-1.192;2023-04-29T06:33:07;101322.06;;;8.95;51.36
46756;BME280;32506;52.826;-1.192;2023-04-29T06:35:32;101321.88;;;8.96;51.23
46756;BME280;32506;52.826;-1.192;2023-04-29T06:37:58;101322.31;;;9.00;51.40
46756;BME280;32506;52.826;-1.192;2023-04-29T06:40:23;101327.28;;;9.03;51.81
46756;BME280;32506;52.826;-1.192;2023-04-29T06:42:48;101326.09;;;9.05;52.16
46756;BME280;32506;52.826;-1.192;2023-04-29T06:45:16;101328.19;;;9.10;52.43
46756;BME280;32506;52.826;-1.192;2023-04-29T06:47:41;101327.84;;;9.13;52.43
46756;BME280;32506;52.826;-1.192;2023-04-29T06:50:08;101329.13;;;9.17;52.43
46756;BME280;32506;52.826;-1.192;2023-04-29T06:52:34;101338.22;;;9.23;52.73
46756;BME280;32506;52.826;-1.192;2023-04-29T06:54:59;101344.03;;;9.27;52.54
46756;BME280;32506;52.826;-1.192;2023-04-29T06:57:25;101349.59;;;9.32;52.97
46756;BME280;32506;52.826;-1.192;2023-04-29T06:59:51;101341.06;;;9.36;52.99
46756;BME280;32506;52.826;-1.192;2023-04-29T07:02:16;101345.00;;;9.40;53.24
46756;BME280;32506;52.826;-1.192;2023-04-29T07:04:42;101340.56;;;9.48;53.38
46756;BME280;32506;52.826;-1.192;2023-04-29T07:07:07;101347.84;;;9.54;53.92
46756;BME280;32506;52.826;-1.192;2023-04-29T07:09:33;101351.41;;;9.61;54.40
46756;BME280;32506;52.826;-1.192;2023-04-29T07:11:58;101353.13;;;9.69;54.55
46756;BME280;32506;52.826;-1.192;2023-04-29T07:14:24;101356.69;;;9.76;55.01
46756;BME280;32506;52.826;-1.192;2023-04-29T07:16:53;101359.09;;;9.86;55.50
46756;BME280;32506;52.826;-1.192;2023-04-29T07:19:18;101364.94;;;9.96;56.31
46756;BME280;32506;52.826;-1.192;2023-04-29T07:21:44;101351.28;;;10.06;57.15
46756;BME280;32506;52.826;-1.192;2023-04-29T07:24:10;101355.09;;;10.18;57.30
46756;BME280;32506;52.826;-1.192;2023-04-29T07:26:35;101360.75;;;10.30;58.10
46756;BME280;32506;52.826;-1.192;2023-04-29T07:29:01;101361.09;;;10.42;58.60
46756;BME280;32506;52.826;-1.192;2023-04-29T07:31:27;101364.69;;;10.56;59.07
46756;BME280;32506;52.826;-1.192;2023-04-29T07:33:53;101359.66;;;10.68;59.56
46756;BME280;32506;52.826;-1.192;2023-04-29T07:36:19;101362.41;;;10.81;59.76
46756;BME280;32506;52.826;-1.192;2023-04-29T07:38:45;101363.31;;;10.95;59.74
46756;BME280;32506;52.826;-1.192;2023-04-29T07:41:10;101369.78;;;11.07;59.64
46756;BME280;32506;52.826;-1.192;2023-04-29T07:43:36;101361.81;;;11.21;59.91
46756;BME280;32506;52.826;-1.192;2023-04-29T07:46:01;101359.41;;;11.33;59.85
46756;BME280;32506;52.826;-1.192;2023-04-29T07:48:26;101359.47;;;11.46;59.63
46756;BME280;32506;52.826;-1.192;2023-04-29T07:50:52;101356.84;;;11.59;59.84
46756;BME280;32506;52.826;-1.192;2023-04-29T07:53:17;101372.97;;;11.73;59.30
46756;BME280;32506;52.826;-1.192;2023-04-29T07:55:43;101369.31;;;11.87;59.07
46756;BME280;32506;52.826;-1.192;2023-04-29T07:58:08;101374.72;;;12.01;59.08
46756;BME280;32506;52.826;-1.192;2023-04-29T08:00:34;101367.75;;;12.13;58.98
46756;BME280;32506;52.826;-1.192;2023-04-29T08:03:00;101373.94;;;12.27;59.26
46756;BME280;32506;52.826;-1.192;2023-04-29T08:05:25;101372.09;;;12.41;58.93
46756;BME280;32506;52.826;-1.192;2023-04-29T08:07:51;101378.06;;;12.56;58.95
46756;BME280;32506;52.826;-1.192;2023-04-29T08:10:17;101381.78;;;12.69;58.54
46756;BME280;32506;52.826;-1.192;2023-04-29T08:12:46;101378.06;;;12.83;58.95
46756;BME280;32506;52.826;-1.192;2023-04-29T08:15:12;101379.91;;;12.96;58.99
46756;BME280;32506;52.826;-1.192;2023-04-29T08:17:38;101380.91;;;13.08;59.12
46756;BME280;32506;52.826;-1.192;2023-04-29T08:20:04;101388.94;;;13.22;59.23
46756;BME280;32506;52.826;-1.192;2023-04-29T08:22:29;101380.03;;;13.35;59.17
46756;BME280;32506;52.826;-1.192;2023-04-29T08:24:55;101374.59;;;13.48;59.12
46756;BME280;32506;52.826;-1.192;2023-04-29T08:27:21;101376.44;;;13.61;59.32
46756;BME280;32506;52.826;-1.192;2023-04-29T08:29:47;101374.72;;;13.73;59.14
46756;BME280;32506;52.826;-1.192;2023-04-29T08:32:12;101385.16;;;13.88;58.98
46756;BME280;32506;52.826;-1.192;2023-04-29T08:34:38;101383.03;;;14.04;59.07
46756;BME280;32506;52.826;-1.192;2023-04-29T08:37:05;101371.75;;;14.20;59.13
46756;BME280;32506;52.826;-1.192;2023-04-29T08:39:31;101383.38;;;14.39;59.11
46756;BME280;32506;52.826;-1.192;2023-04-29T08:41:57;101376.22;;;14.58;59.18
46756;BME280;32506;52.826;-1.192;2023-04-29T08:44:26;101381.25;;;14.80;58.93
46756;BME280;32506;52.826;-1.192;2023-04-29T08:46:52;101384.53;;;15.01;59.00
46756;BME280;32506;52.826;-1.192;2023-04-29T08:49:18;101388.69;;;15.22;58.98
46756;BME280;32506;52.826;-1.192;2023-04-29T08:51:44;101385.75;;;15.42;58.87
46756;BME280;32506;52.826;-1.192;2023-04-29T08:54:10;101380.38;;;15.60;58.90
46756;BME280;32506;52.826;-1.192;2023-04-29T08:56:36;101382.81;;;15.81;58.84
46756;BME280;32506;52.826;-1.192;2023-04-29T08:59:03;101387.94;;;16.01;58.59
46756;BME280;32506;52.826;-1.192;2023-04-29T09:01:29;101389.75;;;16.19;58.24
46756;BME280;32506;52.826;-1.192;2023-04-29T09:06:23;101399.53;;;16.55;57.79
46756;BME280;32506;52.826;-1.192;2023-04-29T09:08:48;101394.53;;;16.71;57.76
46756;BME280;32506;52.826;-1.192;2023-04-29T09:11:14;101408.97;;;16.88;57.16
46756;BME280;32506;52.826;-1.192;2023-04-29T09:13:40;101403.91;;;17.04;57.22
46756;BME280;32506;52.826;-1.192;2023-04-29T09:16:12;101403.78;;;17.22;56.80
46756;BME280;32506;52.826;-1.192;2023-04-29T09:18:50;101398.47;;;17.39;56.87
46756;BME280;32506;52.826;-1.192;2023-04-29T09:21:21;101407.72;;;17.55;56.73
46756;BME280;32506;52.826;-1.192;2023-04-29T09:23:49;101408.03;;;17.71;56.34
46756;BME280;32506;52.826;-1.192;2023-04-29T09:26:15;101411.03;;;17.86;56.50
46756;BME280;32506;52.826;-1.192;2023-04-29T09:28:40;101403.72;;;17.99;56.02
46756;BME280;32506;52.826;-1.192;2023-04-29T09:31:12;101400.97;;;18.10;55.86
46756;BME280;32506;52.826;-1.192;2023-04-29T09:33:54;101404.16;;;18.24;56.03
46756;BME280;32506;52.826;-1.192;2023-04-29T09:36:45;101403.28;;;18.36;55.59
46756;BME280;32506;52.826;-1.192;2023-04-29T09:39:19;101415.56;;;18.43;55.15
46756;BME280;32506;52.826;-1.192;2023-04-29T09:44:24;101412.88;;;18.60;54.76
46756;BME280;32506;52.826;-1.192;2023-04-29T09:47:02;101412.47;;;18.69;54.59
46756;BME280;32506;52.826;-1.192;2023-04-29T09:51:58;101417.53;;;18.82;54.55
46756;BME280;32506;52.826;-1.192;2023-04-29T09:54:26;101415.97;;;18.86;54.35
46756;BME280;32506;52.826;-1.192;2023-04-29T09:56:59;101415.03;;;18.92;54.40
46756;BME280;32506;52.826;-1.192;2023-04-29T09:59:26;101416.72;;;18.99;54.14
46756;BME280;32506;52.826;-1.192;2023-04-29T10:01:54;101418.94;;;19.02;54.25
46756;BME280;32506;52.826;-1.192;2023-04-29T10:04:21;101413.34;;;19.08;54.10
46756;BME280;32506;52.826;-1.192;2023-04-29T10:06:49;101419.66;;;19.14;53.98
46756;BME280;32506;52.826;-1.192;2023-04-29T10:09:16;101417.84;;;19.20;54.21
46756;BME280;32506;52.826;-1.192;2023-04-29T10:11:44;101425.78;;;19.26;53.90
46756;BME280;32506;52.826;-1.192;2023-04-29T10:14:14;101425.84;;;19.32;54.14
46756;BME280;32506;52.826;-1.192;2023-04-29T10:17:01;101426.22;;;19.40;53.81
46756;BME280;32506;52.826;-1.192;2023-04-29T10:19:57;101428.44;;;19.43;53.89
46756;BME280;32506;52.826;-1.192;2023-04-29T10:22:47;101430.47;;;19.53;53.70
46756;BME280;32506;52.826;-1.192;2023-04-29T10:25:17;101427.22;;;19.56;53.66
46756;BME280;32506;52.826;-1.192;2023-04-29T10:27:44;101431.91;;;19.61;53.57
46756;BME280;32506;52.826;-1.192;2023-04-29T10:30:15;101425.47;;;19.67;53.66
46756;BME280;32506;52.826;-1.192;2023-04-29T10:32:41;101419.28;;;19.72;53.59
46756;BME280;32506;52.826;-1.192;2023-04-29T10:35:09;101409.91;;;19.79;53.14
46756;BME280;32506;52.826;-1.192;2023-04-29T10:37:36;101423.31;;;19.91;53.24
46756;BME280;32506;52.826;-1.192;2023-04-29T10:42:53;101424.16;;;20.19;53.26
46756;BME280;32506;52.826;-1.192;2023-04-29T10:45:26;101425.91;;;20.36;53.10
46756;BME280;32506;52.826;-1.192;2023-04-29T10:50:35;101422.91;;;20.65;53.00
46756;BME280;32506;52.826;-1.192;2023-04-29T10:53:06;101424.94;;;20.79;52.83
46756;BME280;32506;52.826;-1.192;2023-04-29T10:55:36;101429.66;;;20.94;52.60
46756;BME280;32506;52.826;-1.192;2023-04-29T10:58:32;101437.34;;;21.08;52.60
46756;BME280;32506;52.826;-1.192;2023-04-29T11:00:51;101439.31;;;21.23;52.12
46756;BME280;32506;52.826;-1.192;2023-04-29T11:06:21;101433.25;;;21.53;52.17
46756;BME280;32506;52.826;-1.192;2023-04-29T11:12:07;101438.81;;;21.84;51.93
46756;BME280;32506;52.826;-1.192;2023-04-29T11:14:41;101429.03;;;21.93;51.56
46756;BME280;32506;52.826;-1.192;2023-04-29T11:17:08;101435.59;;;22.03;51.71
46756;BME280;32506;52.826;-1.192;2023-04-29T11:19:36;101434.78;;;22.12;51.67
46756;BME280;32506;52.826;-1.192;2023-04-29T11:22:10;101435.59;;;22.23;51.49
46756;BME280;32506;52.826;-1.192;2023-04-29T11:24:47;101434.28;;;22.36;51.31
46756;BME280;32506;52.826;-1.192;2023-04-29T11:27:14;101434.03;;;22.48;51.19
46756;BME280;32506;52.826;-1.192;2023-04-29T11:29:40;101432.13;;;22.59;51.10
46756;BME280;32506;52.826;-1.192;2023-04-29T11:32:06;101429.66;;;22.73;50.58
46756;BME280;32506;52.826;-1.192;2023-04-29T11:34:32;101429.88;;;22.87;50.88
46756;BME280;32506;52.826;-1.192;2023-04-29T11:36:58;101442.69;;;23.02;50.52
46756;BME280;32506;52.826;-1.192;2023-04-29T11:39:25;101439.13;;;23.17;50.23
46756;BME280;32506;52.826;-1.192;2023-04-29T11:41:51;101431.75;;;23.27;50.27
46756;BME280;32506;52.826;-1.192;2023-04-29T11:44:20;101429.78;;;23.38;50.29
46756;BME280;32506;52.826;-1.192;2023-04-29T11:46:49;101426.19;;;23.48;49.92
46756;BME280;32506;52.826;-1.192;2023-04-29T11:49:14;101424.78;;;23.61;49.67
46756;BME280;32506;52.826;-1.192;2023-04-29T11:51:40;101420.59;;;23.74;49.82
46756;BME280;32506;52.826;-1.192;2023-04-29T11:54:05;101420.81;;;23.88;50.04
46756;BME280;32506;52.826;-1.192;2023-04-29T11:56:31;101419.69;;;23.99;43.77
46756;BME280;32506;52.826;-1.192;2023-04-29T11:58:57;101425.09;;;24.04;47.59
46756;BME280;32506;52.826;-1.192;2023-04-29T12:01:24;101419.63;;;24.04;45.10
46756;BME280;32506;52.826;-1.192;2023-04-29T12:03:50;101422.94;;;24.01;46.44
46756;BME280;32506;52.826;-1.192;2023-04-29T12:06:15;101420.22;;;24.01;46.72
46756;BME280;32506;52.826;-1.192;2023-04-29T12:08:41;101426.47;;;24.02;46.72
46756;BME280;32506;52.826;-1.192;2023-04-29T12:11:06;101420.72;;;24.03;47.16
46756;BME280;32506;52.826;-1.192;2023-04-29T12:13:33;101425.38;;;24.08;47.20
46756;BME280;32506;52.826;-1.192;2023-04-29T12:16:02;101426.97;;;24.09;47.08
46756;BME280;32506;52.826;-1.192;2023-04-29T12:18:28;101421.75;;;24.12;47.09
46756;BME280;32506;52.826;-1.192;2023-04-29T12:20:55;101425.03;;;24.15;46.97
46756;BME280;32506;52.826;-1.192;2023-04-29T12:23:22;101422.81;;;24.17;46.98
46756;BME280;32506;52.826;-1.192;2023-04-29T12:25:56;101425.28;;;24.18;47.43
46756;BME280;32506;52.826;-1.192;2023-04-29T12:28:22;101428.00;;;24.18;47.19
46756;BME280;32506;52.826;-1.192;2023-04-29T12:30:50;101427.19;;;24.18;47.27
46756;BME280;32506;52.826;-1.192;2023-04-29T12:35:46;101425.84;;;24.15;47.56
46756;BME280;32506;52.826;-1.192;2023-04-29T12:38:15;101421.75;;;24.12;47.50
46756;BME280;32506;52.826;-1.192;2023-04-29T12:40:43;101416.34;;;24.07;47.05
46756;BME280;32506;52.826;-1.192;2023-04-29T12:43:09;101428.63;;;24.05;46.99
46756;BME280;32506;52.826;-1.192;2023-04-29T12:45:35;101422.13;;;24.01;46.79
46756;BME280;32506;52.826;-1.192;2023-04-29T12:48:01;101426.22;;;23.98;46.40
46756;BME280;32506;52.826;-1.192;2023-04-29T12:50:33;101423.25;;;23.94;45.64
46756;BME280;32506;52.826;-1.192;2023-04-29T12:52:59;101415.91;;;23.90;45.95
46756;BME280;32506;52.826;-1.192;2023-04-29T12:55:25;101416.16;;;23.88;45.53
46756;BME280;32506;52.826;-1.192;2023-04-29T12:57:51;101417.53;;;23.86;45.58
46756;BME280;32506;52.826;-1.192;2023-04-29T13:00:17;101411.56;;;23.84;45.84
46756;BME280;32506;52.826;-1.192;2023-04-29T13:02:44;101412.94;;;23.81;45.99
46756;BME280;32506;52.826;-1.192;2023-04-29T13:05:10;101411.81;;;23.82;46.50
46756;BME280;32506;52.826;-1.192;2023-04-29T13:07:37;101409.09;;;23.82;46.35
46756;BME280;32506;52.826;-1.192;2023-04-29T13:10:03;101406.34;;;23.87;46.30
46756;BME280;32506;52.826;-1.192;2023-04-29T13:12:33;101409.06;;;23.92;45.87
46756;BME280;32506;52.826;-1.192;2023-04-29T13:14:59;101402.72;;;24.02;46.01